New Orleans, Louisiana
Traffic Map
Current Weather Conditions
New Orleans, Louisiana
Clear
Clear
71°
Feels Like: 71°
Wind Chill: 71° Ceiling: Unl
Heat Index: 71° Visibility: 10mi
Dew Point: 64° Wind: 10mph
Humidity: 78% Direction: 60° (ENE)
Pressure: 30.18in Gusts: 0mph
Raw Report DataKNEW 191353Z AUTO 06009KT 10SM CLR 22/18 A3018 RMK AO2 SLP213 T02170178
Traffic Incident Summary
Active as of:
Severity:
Category:
InformationThere was an issue retrieving the traffic information for this location. Please try a different location or try again shortly.
Advertisements